Vinemont, Alabama
Current Conditions -  °F | °C
As of 8:55 AM on Tuesday 21 Oct 2014 (Local Time) from KCMD Reporting Station
Clear Clear  
Wind Chill: 56°   Ceiling: Unl
Heat Index: 56°   Visibility: 10mi
Dew Point: 52°   Wind: 0mph
Humidity: 85%   Direction: NA
Pressure: 30.09"   Gusts: NA
Location:  34.25°N, 86.86°W
Report Text: KCMD 211355Z AUTO 00000KT 10SM CLR 13/11 A3009 RMK AO2 T01340109
Loading
Personal Weather Stations






























Interactive Weather Map
Tropical Storm Tracking
New forecast layout! Learn more

10-Day Weather Forecast

Advertisements
Track Severe Weather on mobile